Time,TemperatureF,DewpointF,PressureIn,WindDirection,WindDirectionDegrees,WindSpeedMPH,WindSpeedGustMPH,Humidity,HourlyPrecipIn,Conditions,Clouds,dailyrainin,SoftwareType,DateUTC
2013-06-28 00:01:00,59.7,52.1,30.07,WSW,248,0.9,2.3,76,0.00,CLR,,0.00,WeatherDisplay:10.37,2013-06-28 06:01:00,
2013-06-28 00:06:00,59.5,52.3,30.08,West,270,0.0,0.0,77,0.00,CLR,,0.00,WeatherDisplay:10.37,2013-06-28 06:06:00,
2013-06-28 00:11:00,59.4,52.2,30.08,WSW,248,1.9,2.3,77,0.00,CLR,,0.00,WeatherDisplay:10.37,2013-06-28 06:11:00,
2013-06-28 00:16:00,59.2,52.0,30.08,WSW,248,1.7,2.3,77,0.00,CLR,,0.00,WeatherDisplay:10.37,2013-06-28 06:16:00,
2013-06-28 00:21:00,59.2,52.0,30.08,SW,225,2.4,2.7,77,0.00,CLR,,0.00,WeatherDisplay:10.37,2013-06-28 06:21:00,
2013-06-28 00:26:00,59.2,52.0,30.08,SW,225,3.0,3.5,77,0.00,CLR,,0.00,WeatherDisplay:10.37,2013-06-28 06:26:00,
2013-06-28 00:31:00,59.4,51.8,30.08,SW,225,3.6,3.6,76,0.00,CLR,,0.00,WeatherDisplay:10.37,2013-06-28 06:31:00,
2013-06-28 00:36:00,59.4,51.8,30.08,WSW,248,3.2,3.5,76,0.00,CLR,,0.00,WeatherDisplay:10.37,2013-06-28 06:36:00,
2013-06-28 00:41:00,59.2,51.6,30.08,SW,225,2.9,3.5,76,0.00,CLR,,0.00,WeatherDisplay:10.37,2013-06-28 06:41:00,
2013-06-28 00:46:00,58.8,51.6,30.08,SW,225,1.2,2.3,77,0.00,CLR,,0.00,WeatherDisplay:10.37,2013-06-28 06:46:00,
2013-06-28 00:51:00,58.8,51.6,30.08,SW,225,2.5,2.5,77,0.00,CLR,,0.00,WeatherDisplay:10.37,2013-06-28 06:51:00,
2013-06-28 00:56:00,58.8,51.6,30.08,SW,225,3.2,3.7,77,0.00,CLR,,0.00,WeatherDisplay:10.37,2013-06-28 06:56:00,
2013-06-28 01:01:00,58.8,51.6,30.08,SW,225,3.7,3.7,77,0.00,CLR,,0.00,WeatherDisplay:10.37,2013-06-28 07:01:00,
2013-06-28 01:06:00,58.6,51.4,30.08,SSW,202,2.7,3.5,77,0.00,CLR,,0.00,WeatherDisplay:10.37,2013-06-28 07:06:00,
2013-06-28 01:12:00,58.3,51.5,30.08,SW,225,3.1,3.5,78,0.00,CLR,,0.00,WeatherDisplay:10.37,2013-06-28 07:12:00,
2013-06-28 01:16:00,58.1,51.6,30.08,WSW,248,2.7,3.5,79,0.00,CLR,,0.00,WeatherDisplay:10.37,2013-06-28 07:16:00,
2013-06-28 01:22:00,57.9,51.4,30.08,SW,225,4.3,4.6,79,0.00,CLR,,0.00,WeatherDisplay:10.37,2013-06-28 07:22:00,
2013-06-28 01:27:00,57.9,51.4,30.08,SW,225,3.9,4.7,79,0.00,CLR,,0.00,WeatherDisplay:10.37,2013-06-28 07:27:00,
2013-06-28 01:32:00,57.6,51.5,30.08,SW,225,2.5,4.6,80,0.00,CLR,,0.00,WeatherDisplay:10.37,2013-06-28 07:32:00,
2013-06-28 01:37:00,57.4,51.6,30.08,WSW,248,2.2,2.7,81,0.00,CLR,,0.00,WeatherDisplay:10.37,2013-06-28 07:37:00,
2013-06-28 01:42:00,57.2,51.4,30.08,WSW,248,2.0,2.7,81,0.00,CLR,,0.00,WeatherDisplay:10.37,2013-06-28 07:42:00,
2013-06-28 01:47:00,57.2,51.4,30.08,SW,225,2.5,2.7,81,0.00,CLR,,0.00,WeatherDisplay:10.37,2013-06-28 07:47:00,
2013-06-28 01:52:00,57.0,51.2,30.08,West,270,0.9,2.3,81,0.00,CLR,,0.00,WeatherDisplay:10.37,2013-06-28 07:52:00,
2013-06-28 01:57:00,56.8,51.0,30.08,SW,225,0.1,1.1,81,0.00,CLR,,0.00,WeatherDisplay:10.37,2013-06-28 07:57:00,
2013-06-28 02:02:00,57.0,51.2,30.08,SW,225,3.0,3.7,81,0.00,CLR,,0.00,WeatherDisplay:10.37,2013-06-28 08:02:00,
2013-06-28 02:07:00,57.0,50.9,30.08,SW,225,4.7,4.7,80,0.00,CLR,,0.00,WeatherDisplay:10.37,2013-06-28 08:07:00,
2013-06-28 02:12:00,57.0,51.2,30.08,WSW,248,2.8,2.8,81,0.00,CLR,,0.00,WeatherDisplay:10.37,2013-06-28 08:12:00,
2013-06-28 02:17:00,57.0,51.2,30.08,West,270,3.6,3.7,81,0.00,CLR,,0.00,WeatherDisplay:10.37,2013-06-28 08:17:00,
2013-06-28 02:22:00,56.8,51.0,30.08,WSW,248,3.1,3.5,81,0.00,CLR,,0.00,WeatherDisplay:10.37,2013-06-28 08:22:00,
2013-06-28 02:27:00,56.8,51.0,30.08,SW,225,3.7,4.6,81,0.00,CLR,,0.00,WeatherDisplay:10.37,2013-06-28 08:27:00,
2013-06-28 02:32:00,56.7,51.3,30.08,SW,225,3.2,3.5,82,0.00,CLR,,0.00,WeatherDisplay:10.37,2013-06-28 08:32:00,
2013-06-28 02:37:00,56.5,51.1,30.08,West,270,2.5,2.7,82,0.00,CLR,,0.00,WeatherDisplay:10.37,2013-06-28 08:37:00,
2013-06-28 02:42:00,56.1,51.0,30.08,West,270,0.0,2.3,83,0.00,CLR,,0.00,WeatherDisplay:10.37,2013-06-28 08:42:00,
2013-06-28 02:47:00,56.1,51.3,30.08,SW,225,2.7,2.7,84,0.00,CLR,,0.00,WeatherDisplay:10.37,2013-06-28 08:47:00,
2013-06-28 02:52:00,55.9,51.1,30.08,NW,315,0.6,1.1,84,0.00,CLR,,0.00,WeatherDisplay:10.37,2013-06-28 08:52:00,
2013-06-28 02:57:00,55.9,51.5,30.08,WSW,248,0.0,0.0,85,0.00,CLR,,0.00,WeatherDisplay:10.37,2013-06-28 08:57:00,
2013-06-28 03:02:00,55.9,51.5,30.08,SW,225,1.7,2.3,85,0.00,CLR,,0.00,WeatherDisplay:10.37,2013-06-28 09:02:00,
2013-06-28 03:07:00,55.9,51.5,30.08,WSW,248,0.0,0.0,85,0.00,CLR,,0.00,WeatherDisplay:10.37,2013-06-28 09:07:00,
2013-06-28 03:12:00,55.6,50.8,30.08,WNW,292,0.0,0.0,84,0.00,CLR,,0.00,WeatherDisplay:10.37,2013-06-28 09:12:00,
2013-06-28 03:17:00,55.6,50.5,30.09,NNW,338,0.0,0.0,83,0.00,CLR,,0.00,WeatherDisplay:10.37,2013-06-28 09:17:00,
2013-06-28 03:22:00,55.8,50.4,30.09,SW,225,1.2,2.2,82,0.00,CLR,,0.00,WeatherDisplay:10.37,2013-06-28 09:22:00,
2013-06-28 03:27:00,55.8,50.4,30.09,SSE,158,0.0,0.0,82,0.00,CLR,,0.00,WeatherDisplay:10.37,2013-06-28 09:27:00,
2013-06-28 03:32:00,55.4,50.3,30.09,WSW,248,0.0,0.0,83,0.00,CLR,,0.00,WeatherDisplay:10.37,2013-06-28 09:32:00,
2013-06-28 03:37:00,55.2,50.1,30.09,SW,225,0.0,0.0,83,0.00,CLR,,0.00,WeatherDisplay:10.37,2013-06-28 09:37:00,
2013-06-28 03:42:00,55.0,49.9,30.09,South,180,0.0,0.0,83,0.00,CLR,,0.00,WeatherDisplay:10.37,2013-06-28 09:42:00,
2013-06-28 03:47:00,55.2,50.4,30.09,SW,225,3.1,4.6,84,0.00,CLR,,0.00,WeatherDisplay:10.37,2013-06-28 09:47:00,
2013-06-28 03:52:00,55.2,50.4,30.09,SW,225,2.0,2.3,84,0.00,CLR,,0.00,WeatherDisplay:10.37,2013-06-28 09:52:00,
2013-06-28 03:57:00,55.0,50.3,30.09,SW,225,1.6,1.6,84,0.00,CLR,,0.00,WeatherDisplay:10.37,2013-06-28 09:57:00,
2013-06-28 04:02:00,55.4,50.6,30.09,SW,225,3.7,3.7,84,0.00,CLR,,0.00,WeatherDisplay:10.37,2013-06-28 10:02:00,
2013-06-28 04:07:00,55.6,50.8,30.09,SW,225,3.1,3.5,84,0.00,CLR,,0.00,WeatherDisplay:10.37,2013-06-28 10:07:00,
2013-06-28 04:12:00,55.8,51.0,30.09,WSW,248,3.0,4.6,84,0.00,CLR,,0.00,WeatherDisplay:10.37,2013-06-28 10:12:00,
2013-06-28 04:17:00,55.8,51.0,30.09,WSW,248,2.8,3.5,84,0.00,CLR,,0.00,WeatherDisplay:10.37,2013-06-28 10:17:00,
2013-06-28 04:22:00,55.6,50.8,30.09,SW,225,3.6,3.7,84,0.00,CLR,,0.00,WeatherDisplay:10.37,2013-06-28 10:22:00,
2013-06-28 04:27:00,55.6,50.8,30.10,SW,225,2.7,3.5,84,0.00,CLR,,0.00,WeatherDisplay:10.37,2013-06-28 10:27:00,
2013-06-28 04:32:00,55.4,51.0,30.10,SW,225,1.6,1.6,85,0.00,CLR,,0.00,WeatherDisplay:10.37,2013-06-28 10:32:00,
2013-06-28 04:37:00,55.2,50.8,30.10,SW,225,2.0,2.3,85,0.00,CLR,,0.00,WeatherDisplay:10.37,2013-06-28 10:37:00,
2013-06-28 04:42:00,55.0,50.9,30.10,SW,225,1.5,1.7,86,0.00,CLR,,0.00,WeatherDisplay:10.37,2013-06-28 10:42:00,
2013-06-28 04:47:00,54.9,50.8,30.10,SW,225,1.6,2.2,86,0.00,CLR,,0.00,WeatherDisplay:10.37,2013-06-28 10:47:00,
2013-06-28 04:52:00,54.9,50.8,30.10,WSW,248,3.5,4.2,86,0.00,CLR,,0.00,WeatherDisplay:10.37,2013-06-28 10:52:00,
2013-06-28 04:57:00,55.2,50.8,30.10,SW,225,2.9,3.5,85,0.00,CLR,,0.00,WeatherDisplay:10.37,2013-06-28 10:57:00,
2013-06-28 05:02:00,55.0,50.3,30.10,SW,225,4.1,4.6,84,0.00,CLR,,0.00,WeatherDisplay:10.37,2013-06-28 11:02:00,
2013-06-28 05:07:00,54.9,50.2,30.10,WSW,248,3.1,3.5,84,0.00,CLR,,0.00,WeatherDisplay:10.37,2013-06-28 11:07:00,
2013-06-28 05:12:00,54.9,50.2,30.10,SW,225,3.4,4.6,84,0.00,CLR,,0.00,WeatherDisplay:10.37,2013-06-28 11:12:00,
2013-06-28 05:17:00,54.7,50.0,30.10,WSW,248,3.2,3.5,84,0.00,CLR,,0.00,WeatherDisplay:10.37,2013-06-28 11:17:00,
2013-06-28 05:22:00,54.7,50.0,30.10,WSW,248,2.6,3.5,84,0.00,CLR,,0.00,WeatherDisplay:10.37,2013-06-28 11:22:00,
2013-06-28 05:27:00,54.7,50.0,30.11,SW,225,1.9,2.3,84,0.00,CLR,,0.00,WeatherDisplay:10.37,2013-06-28 11:27:00,
2013-06-28 05:33:00,54.7,50.3,30.11,East,90,1.3,2.3,85,0.00,CLR,,0.00,WeatherDisplay:10.37,2013-06-28 11:33:00,
2013-06-28 05:38:00,55.0,50.6,30.11,SW,225,2.5,2.7,85,0.00,CLR,,0.00,WeatherDisplay:10.37,2013-06-28 11:38:00,
2013-06-28 05:43:00,55.8,51.0,30.11,SW,225,2.7,3.5,84,0.00,CLR,,0.00,WeatherDisplay:10.37,2013-06-28 11:43:00,
2013-06-28 05:48:00,56.3,51.2,30.11,SW,225,1.9,2.3,83,0.00,CLR,,0.00,WeatherDisplay:10.37,2013-06-28 11:48:00,
2013-06-28 05:53:00,57.0,51.6,30.11,SW,225,1.6,2.3,82,0.00,CLR,,0.00,WeatherDisplay:10.37,2013-06-28 11:53:00,
2013-06-28 05:58:00,57.7,51.9,30.11,SW,225,2.5,2.5,81,0.00,CLR,,0.00,WeatherDisplay:10.37,2013-06-28 11:58:00,
2013-06-28 06:03:00,57.7,51.9,30.12,SW,225,2.0,2.3,81,0.00,CLR,,0.00,WeatherDisplay:10.37,2013-06-28 12:03:00,
2013-06-28 06:08:00,57.7,51.6,30.12,SW,225,3.0,3.5,80,0.00,CLR,,0.00,WeatherDisplay:10.37,2013-06-28 12:08:00,
2013-06-28 06:13:00,57.7,51.6,30.12,SW,225,2.4,2.4,80,0.00,CLR,,0.00,WeatherDisplay:10.37,2013-06-28 12:13:00,
2013-06-28 06:18:00,58.3,51.5,30.12,West,270,2.4,2.4,78,0.00,CLR,,0.00,WeatherDisplay:10.37,2013-06-28 12:18:00,
2013-06-28 06:23:00,59.0,51.8,30.12,West,270,2.1,3.5,77,0.00,CLR,,0.00,WeatherDisplay:10.37,2013-06-28 12:23:00,
2013-06-28 06:28:00,59.7,52.1,30.12,WSW,248,2.0,3.5,76,0.00,CLR,,0.00,WeatherDisplay:10.37,2013-06-28 12:28:00,
2013-06-28 06:33:00,60.6,52.6,30.12,West,270,1.2,2.3,75,0.00,CLR,,0.00,WeatherDisplay:10.37,2013-06-28 12:33:00,
2013-06-28 06:38:00,61.2,52.5,30.12,SW,225,2.7,3.5,73,0.00,CLR,,0.00,WeatherDisplay:10.37,2013-06-28 12:38:00,
2013-06-28 06:43:00,61.7,53.0,30.12,WSW,248,2.6,3.5,73,0.00,CLR,,0.00,WeatherDisplay:10.37,2013-06-28 12:43:00,
2013-06-28 06:48:00,62.6,53.4,30.12,WSW,248,2.5,3.5,72,0.00,CLR,,0.00,WeatherDisplay:10.37,2013-06-28 12:48:00,
2013-06-28 06:53:00,62.8,53.3,30.12,SW,225,3.1,4.6,71,0.00,CLR,,0.00,WeatherDisplay:10.37,2013-06-28 12:53:00,
2013-06-28 06:58:00,63.1,53.2,30.12,SW,225,3.9,4.6,70,0.00,CLR,,0.00,WeatherDisplay:10.37,2013-06-28 12:58:00,
2013-06-28 07:03:00,63.7,53.3,30.12,WSW,248,3.6,4.6,69,0.00,CLR,,0.00,WeatherDisplay:10.37,2013-06-28 13:03:00,
2013-06-28 07:08:00,64.2,53.8,30.12,WSW,248,3.1,3.5,69,0.00,CLR,,0.00,WeatherDisplay:10.37,2013-06-28 13:08:00,
2013-06-28 07:13:00,64.9,54.5,30.12,WSW,248,2.7,3.5,69,0.00,CLR,,0.00,WeatherDisplay:10.37,2013-06-28 13:13:00,
2013-06-28 07:18:00,65.5,54.7,30.13,West,270,3.0,3.5,68,0.00,CLR,,0.00,WeatherDisplay:10.37,2013-06-28 13:18:00,
2013-06-28 07:23:00,66.6,55.3,30.13,West,270,1.5,2.3,67,0.00,CLR,,0.00,WeatherDisplay:10.37,2013-06-28 13:23:00,
2013-06-28 07:28:00,66.7,55.0,30.13,West,270,2.1,3.5,66,0.00,CLR,,0.00,WeatherDisplay:10.37,2013-06-28 13:28:00,
2013-06-28 07:33:00,67.5,55.3,30.13,SW,225,3.2,4.6,65,0.00,CLR,,0.00,WeatherDisplay:10.37,2013-06-28 13:33:00,
2013-06-28 07:38:00,68.0,55.4,30.12,WSW,248,2.7,3.5,64,0.00,CLR,,0.00,WeatherDisplay:10.37,2013-06-28 13:38:00,
2013-06-28 07:43:00,68.9,56.2,30.12,ESE,112,0.8,2.3,64,0.00,CLR,,0.00,WeatherDisplay:10.37,2013-06-28 13:43:00,
2013-06-28 07:48:00,68.9,56.2,30.12,SW,225,1.1,2.3,64,0.00,CLR,,0.00,WeatherDisplay:10.37,2013-06-28 13:48:00,
2013-06-28 07:53:00,70.2,56.1,30.12,SW,225,3.2,3.5,61,0.00,CLR,,0.00,WeatherDisplay:10.37,2013-06-28 13:53:00,
2013-06-28 07:58:00,70.5,56.4,30.12,SW,225,3.4,4.6,61,0.00,CLR,,0.00,WeatherDisplay:10.37,2013-06-28 13:58:00,
2013-06-28 08:03:00,70.9,56.8,30.12,SW,225,3.5,4.6,61,0.00,CLR,,0.00,WeatherDisplay:10.37,2013-06-28 14:03:00,
2013-06-28 08:08:00,71.1,56.5,30.12,WSW,248,3.3,4.7,60,0.00,CLR,,0.00,WeatherDisplay:10.37,2013-06-28 14:08:00,
2013-06-28 08:13:00,71.2,56.6,30.12,SW,225,3.0,3.5,60,0.00,CLR,,0.00,WeatherDisplay:10.37,2013-06-28 14:13:00,
2013-06-28 08:18:00,73.0,57.8,30.12,SW,225,0.9,2.3,59,0.00,CLR,,0.00,WeatherDisplay:10.37,2013-06-28 14:18:00,
2013-06-28 08:23:00,73.2,57.1,30.12,NNW,338,2.8,4.6,57,0.00,CLR,,0.00,WeatherDisplay:10.37,2013-06-28 14:23:00,
2013-06-28 08:28:00,72.5,55.9,30.12,SSW,202,2.8,4.6,56,0.00,CLR,,0.00,WeatherDisplay:10.37,2013-06-28 14:28:00,
2013-06-28 08:33:00,72.5,55.9,30.12,West,270,2.3,2.3,56,0.00,CLR,,0.00,WeatherDisplay:10.37,2013-06-28 14:33:00,
2013-06-28 08:38:00,72.7,55.6,30.12,West,270,2.7,4.6,55,0.00,CLR,,0.00,WeatherDisplay:10.37,2013-06-28 14:38:00,
2013-06-28 08:43:00,73.2,56.6,30.12,West,270,1.4,2.3,56,0.00,CLR,,0.00,WeatherDisplay:10.37,2013-06-28 14:43:00,
2013-06-28 08:48:00,73.2,56.6,30.12,North,360,3.5,3.7,56,0.00,CLR,,0.00,WeatherDisplay:10.37,2013-06-28 14:48:00,
2013-06-28 08:53:00,73.4,55.7,30.12,NE,45,3.0,4.6,54,0.00,CLR,,0.00,WeatherDisplay:10.37,2013-06-28 14:53:00,
2013-06-28 08:58:00,73.8,56.1,30.12,West,270,2.4,3.5,54,0.00,CLR,,0.00,WeatherDisplay:10.37,2013-06-28 14:58:00,
2013-06-28 09:03:00,73.6,55.9,30.12,West,270,3.6,4.6,54,0.00,CLR,,0.00,WeatherDisplay:10.37,2013-06-28 15:03:00,
2013-06-28 09:08:00,73.9,55.7,30.12,NNE,22,4.0,5.8,53,0.00,CLR,,0.00,WeatherDisplay:10.37,2013-06-28 15:08:00,
2013-06-28 09:13:00,73.8,55.1,30.12,NW,315,6.8,8.1,52,0.00,CLR,,0.00,WeatherDisplay:10.37,2013-06-28 15:13:00,
2013-06-28 09:18:00,74.1,55.9,30.12,NNW,338,3.9,5.8,53,0.00,CLR,,0.00,WeatherDisplay:10.37,2013-06-28 15:18:00,
2013-06-28 09:23:00,74.3,55.5,30.12,SSW,202,3.7,4.6,52,0.00,CLR,,0.00,WeatherDisplay:10.37,2013-06-28 15:23:00,
2013-06-28 09:28:00,74.8,56.5,30.12,NW,315,1.8,3.5,53,0.00,CLR,,0.00,WeatherDisplay:10.37,2013-06-28 15:28:00,
2013-06-28 09:33:00,75.2,55.8,30.12,WNW,292,4.6,8.1,51,0.00,CLR,,0.00,WeatherDisplay:10.37,2013-06-28 15:33:00,
2013-06-28 09:38:00,75.0,56.2,30.12,West,270,5.3,5.8,52,0.00,CLR,,0.00,WeatherDisplay:10.37,2013-06-28 15:38:00,
2013-06-28 09:43:00,75.0,55.6,30.12,WNW,292,4.7,6.8,51,0.00,CLR,,0.00,WeatherDisplay:10.37,2013-06-28 15:43:00,
2013-06-28 09:48:00,75.2,56.9,30.12,West,270,4.4,5.8,53,0.00,CLR,,0.00,WeatherDisplay:10.37,2013-06-28 15:48:00,
2013-06-28 09:53:00,75.4,56.0,30.12,WSW,248,2.7,5.8,51,0.00,CLR,,0.00,WeatherDisplay:10.37,2013-06-28 15:53:00,
2013-06-28 09:58:00,75.9,56.5,30.12,SW,225,2.6,3.5,51,0.00,CLR,,0.00,WeatherDisplay:10.37,2013-06-28 15:58:00,
2013-06-28 10:03:00,75.9,56.5,30.12,NNE,22,3.9,5.8,51,0.00,CLR,,0.00,WeatherDisplay:10.37,2013-06-28 16:03:00,
2013-06-28 10:08:00,75.9,55.9,30.12,NW,315,3.9,4.6,50,0.00,CLR,,0.00,WeatherDisplay:10.37,2013-06-28 16:08:00,
2013-06-28 10:13:00,76.5,55.9,30.11,WNW,292,4.3,4.6,49,0.00,CLR,,0.00,WeatherDisplay:10.37,2013-06-28 16:13:00,
2013-06-28 10:18:00,76.5,55.3,30.11,WNW,292,3.7,5.8,48,0.00,CLR,,0.00,WeatherDisplay:10.37,2013-06-28 16:18:00,
2013-06-28 10:23:00,76.6,54.9,30.11,West,270,6.1,8.1,47,0.00,CLR,,0.00,WeatherDisplay:10.37,2013-06-28 16:23:00,
2013-06-28 10:28:00,77.7,55.3,30.11,North,360,5.0,7.3,46,0.00,CLR,,0.00,WeatherDisplay:10.37,2013-06-28 16:28:00,
2013-06-28 10:33:00,77.4,54.4,30.11,NW,315,4.8,5.8,45,0.00,CLR,,0.00,WeatherDisplay:10.37,2013-06-28 16:33:00,
2013-06-28 10:38:00,78.1,53.8,30.11,North,360,6.3,10.4,43,0.00,CLR,,0.00,WeatherDisplay:10.37,2013-06-28 16:38:00,
2013-06-28 10:43:00,77.7,54.7,30.11,SE,135,5.0,9.2,45,0.00,CLR,,0.00,WeatherDisplay:10.37,2013-06-28 16:43:00,
2013-06-28 10:48:00,77.7,54.7,30.11,WNW,292,3.9,6.9,45,0.00,CLR,,0.00,WeatherDisplay:10.37,2013-06-28 16:48:00,
2013-06-28 10:53:00,77.7,55.9,30.11,West,270,4.7,8.1,47,0.00,CLR,,0.00,WeatherDisplay:10.37,2013-06-28 16:53:00,
2013-06-28 10:58:00,77.7,53.4,30.11,WNW,292,5.9,5.9,43,0.00,CLR,,0.00,WeatherDisplay:10.37,2013-06-28 16:58:00,
2013-06-28 11:03:00,77.9,53.6,30.11,WNW,292,3.9,10.4,43,0.00,CLR,,0.00,WeatherDisplay:10.37,2013-06-28 17:03:00,
2013-06-28 11:08:00,78.3,54.0,30.11,West,270,8.7,11.9,43,0.00,CLR,,0.00,WeatherDisplay:10.37,2013-06-28 17:08:00,
2013-06-28 11:13:00,79.0,54.6,30.11,NNW,338,3.5,5.3,43,0.00,CLR,,0.00,WeatherDisplay:10.37,2013-06-28 17:13:00,
2013-06-28 11:19:00,79.2,53.5,30.11,SSW,202,5.6,6.3,41,0.00,CLR,,0.00,WeatherDisplay:10.37,2013-06-28 17:19:00,
2013-06-28 11:24:00,78.4,54.0,30.11,NNW,338,6.9,10.4,43,0.00,CLR,,0.00,WeatherDisplay:10.37,2013-06-28 17:24:00,
2013-06-28 11:29:00,79.0,54.6,30.11,NNE,22,4.0,11.5,43,0.00,CLR,,0.00,WeatherDisplay:10.37,2013-06-28 17:29:00,
2013-06-28 11:34:00,79.0,53.3,30.11,SW,225,7.6,8.1,41,0.00,CLR,,0.00,WeatherDisplay:10.37,2013-06-28 17:34:00,
2013-06-28 11:39:00,79.0,53.3,30.11,SW,225,7.8,8.1,41,0.00,CLR,,0.00,WeatherDisplay:10.37,2013-06-28 17:39:00,
2013-06-28 11:44:00,79.3,53.6,30.11,East,90,5.9,6.9,41,0.00,CLR,,0.00,WeatherDisplay:10.37,2013-06-28 17:44:00,
2013-06-28 11:49:00,80.4,54.5,30.11,SSW,202,5.2,5.8,41,0.00,CLR,,0.00,WeatherDisplay:10.37,2013-06-28 17:49:00,
2013-06-28 11:54:00,80.6,55.4,30.11,North,360,5.5,6.9,42,0.00,CLR,,0.00,WeatherDisplay:10.37,2013-06-28 17:54:00,
2013-06-28 11:59:00,79.9,53.4,30.11,SSW,202,7.8,9.2,40,0.00,CLR,,0.00,WeatherDisplay:10.37,2013-06-28 17:59:00,
2013-06-28 12:04:00,79.5,53.7,30.10,NNW,338,5.2,5.8,41,0.00,CLR,,0.00,WeatherDisplay:10.37,2013-06-28 18:04:00,
2013-06-28 12:09:00,80.4,54.5,30.10,ESE,112,4.3,9.2,41,0.00,CLR,,0.00,WeatherDisplay:10.37,2013-06-28 18:09:00,
2013-06-28 12:14:00,80.8,53.5,30.10,WNW,292,6.4,10.4,39,0.00,CLR,,0.00,WeatherDisplay:10.37,2013-06-28 18:14:00,
2013-06-28 12:19:00,81.5,54.2,30.10,West,270,3.8,5.8,39,0.00,CLR,,0.00,WeatherDisplay:10.37,2013-06-28 18:19:00,
2013-06-28 12:24:00,80.1,52.9,30.10,North,360,6.0,10.4,39,0.00,CLR,,0.00,WeatherDisplay:10.37,2013-06-28 18:24:00,
2013-06-28 12:29:00,80.2,55.0,30.10,West,270,3.8,4.6,42,0.00,CLR,,0.00,WeatherDisplay:10.37,2013-06-28 18:29:00,
2013-06-28 12:34:00,80.2,53.7,30.10,WNW,292,5.4,8.1,40,0.00,CLR,,0.00,WeatherDisplay:10.37,2013-06-28 18:34:00,
2013-06-28 12:39:00,81.7,54.3,30.10,WSW,248,5.6,8.1,39,0.00,CLR,,0.00,WeatherDisplay:10.37,2013-06-28 18:39:00,
2013-06-28 12:44:00,80.1,52.9,30.10,WNW,292,5.0,7.3,39,0.00,CLR,,0.00,WeatherDisplay:10.37,2013-06-28 18:44:00,
2013-06-28 12:49:00,80.6,53.4,30.10,NW,315,5.4,8.1,39,0.00,CLR,,0.00,WeatherDisplay:10.37,2013-06-28 18:49:00,
2013-06-28 12:54:00,80.6,53.4,30.10,WSW,248,6.2,7.8,39,0.00,CLR,,0.00,WeatherDisplay:10.37,2013-06-28 18:54:00,
2013-06-28 12:59:00,81.1,53.8,30.10,NNW,338,6.3,9.2,39,0.00,CLR,,0.00,WeatherDisplay:10.37,2013-06-28 18:59:00,
2013-06-28 13:04:00,81.7,52.9,30.10,West,270,8.1,10.4,37,0.00,SCT,,0.00,WeatherDisplay:10.37,2013-06-28 19:04:00,
2013-06-28 13:09:00,81.9,54.5,30.10,WNW,292,6.8,10.4,39,0.00,SCT,,0.00,WeatherDisplay:10.37,2013-06-28 19:09:00,
2013-06-28 13:14:00,81.9,53.1,30.10,WSW,248,5.4,8.1,37,0.00,SCT,,0.00,WeatherDisplay:10.37,2013-06-28 19:14:00,
2013-06-28 13:19:00,82.4,54.2,30.10,West,270,5.1,5.8,38,0.00,SCT,,0.00,WeatherDisplay:10.37,2013-06-28 19:19:00,
2013-06-28 13:24:00,82.6,54.4,30.10,NNE,22,4.7,5.8,38,0.00,SCT,,0.00,WeatherDisplay:10.37,2013-06-28 19:24:00,
2013-06-28 13:29:00,81.3,54.0,30.09,NNE,22,6.3,10.4,39,0.00,SCT,,0.00,WeatherDisplay:10.37,2013-06-28 19:29:00,
2013-06-28 13:34:00,82.6,54.4,30.09,NNE,22,5.5,8.1,38,0.00,SCT,,0.00,WeatherDisplay:10.37,2013-06-28 19:34:00,
2013-06-28 13:39:00,81.0,54.4,30.10,NW,315,7.4,10.4,40,0.00,SCT,,0.00,WeatherDisplay:10.37,2013-06-28 19:39:00,
2013-06-28 13:44:00,80.4,53.9,30.10,North,360,3.7,8.1,40,0.00,SCT,,0.00,WeatherDisplay:10.37,2013-06-28 19:44:00,
2013-06-28 13:49:00,81.0,53.0,30.10,West,270,6.6,9.2,38,0.00,SCT,,0.00,WeatherDisplay:10.37,2013-06-28 19:49:00,
2013-06-28 13:54:00,80.8,53.5,30.10,NW,315,5.2,5.8,39,0.00,SCT,,0.00,WeatherDisplay:10.37,2013-06-28 19:54:00,
2013-06-28 13:59:00,81.0,54.4,30.10,SW,225,3.8,3.8,40,0.00,SCT,,0.00,WeatherDisplay:10.37,2013-06-28 19:59:00,
2013-06-28 14:04:00,80.6,54.0,30.09,NNE,22,5.3,7.3,40,0.00,SCT,,0.00,WeatherDisplay:10.37,2013-06-28 20:04:00,
2013-06-28 14:09:00,80.8,54.2,30.09,North,360,6.1,8.1,40,0.00,SCT,,0.00,WeatherDisplay:10.37,2013-06-28 20:09:00,
2013-06-28 14:14:00,81.3,54.0,30.09,North,360,6.8,10.4,39,0.00,SCT,,0.00,WeatherDisplay:10.37,2013-06-28 20:14:00,
2013-06-28 14:19:00,80.8,54.2,30.09,WNW,292,10.7,13.8,40,0.00,SCT,,0.00,WeatherDisplay:10.37,2013-06-28 20:19:00,
2013-06-28 14:24:00,81.1,54.5,30.09,West,270,2.6,9.2,40,0.00,SCT,,0.00,WeatherDisplay:10.37,2013-06-28 20:24:00,
2013-06-28 14:29:00,81.9,53.8,30.08,NNW,338,6.7,9.2,38,0.00,SCT,,0.00,WeatherDisplay:10.37,2013-06-28 20:29:00,
2013-06-28 14:34:00,81.0,53.7,30.08,WNW,292,4.3,5.8,39,0.00,SCT,,0.00,WeatherDisplay:10.37,2013-06-28 20:34:00,
2013-06-28 14:39:00,81.0,53.0,30.08,SW,225,6.9,8.1,38,0.00,SCT,,0.00,WeatherDisplay:10.37,2013-06-28 20:39:00,
2013-06-28 14:44:00,81.0,54.4,30.08,WNW,292,4.6,6.9,40,0.00,SCT,,0.00,WeatherDisplay:10.37,2013-06-28 20:44:00,
2013-06-28 14:49:00,82.0,53.9,30.08,West,270,5.7,7.3,38,0.00,SCT,,0.00,WeatherDisplay:10.37,2013-06-28 20:49:00,
2013-06-28 14:54:00,81.1,54.5,30.08,East,90,6.6,10.4,40,0.00,SCT,,0.00,WeatherDisplay:10.37,2013-06-28 20:54:00,
2013-06-28 14:59:00,82.2,54.8,30.08,WNW,292,5.9,7.8,39,0.00,SCT,,0.00,WeatherDisplay:10.37,2013-06-28 20:59:00,
2013-06-28 15:04:00,81.3,54.0,30.08,West,270,7.9,10.4,39,0.00,SCT,,0.00,WeatherDisplay:10.37,2013-06-28 21:04:00,
2013-06-28 15:09:00,81.3,54.0,30.08,WSW,248,5.8,8.1,39,0.00,SCT,,0.00,WeatherDisplay:10.37,2013-06-28 21:09:00,
2013-06-28 15:14:00,81.1,55.2,30.08,NNW,338,5.0,9.2,41,0.00,SCT,,0.00,WeatherDisplay:10.37,2013-06-28 21:14:00,
2013-06-28 15:19:00,80.8,53.5,30.08,NW,315,8.2,12.4,39,0.00,SCT,,0.00,WeatherDisplay:10.37,2013-06-28 21:19:00,
2013-06-28 15:24:00,81.0,55.1,30.08,NW,315,3.9,4.7,41,0.00,SCT,,0.00,WeatherDisplay:10.37,2013-06-28 21:24:00,
2013-06-28 15:29:00,81.0,54.4,30.08,South,180,5.1,5.8,40,0.00,SCT,,0.00,WeatherDisplay:10.37,2013-06-28 21:29:00,
2013-06-28 15:34:00,80.8,54.2,30.08,WSW,248,5.6,6.9,40,0.00,SCT,,0.00,WeatherDisplay:10.37,2013-06-28 21:34:00,
2013-06-28 15:40:00,81.5,54.2,30.08,NNE,22,5.1,5.8,39,0.00,SCT,,0.00,WeatherDisplay:10.37,2013-06-28 21:40:00,
2013-06-28 15:45:00,81.3,53.3,30.08,NE,45,4.4,6.9,38,0.00,SCT,,0.00,WeatherDisplay:10.37,2013-06-28 21:45:00,
2013-06-28 15:50:00,81.0,53.7,30.08,NNW,338,5.4,9.2,39,0.00,SCT,,0.00,WeatherDisplay:10.37,2013-06-28 21:50:00,
2013-06-28 15:55:00,81.5,54.2,30.08,North,360,8.8,11.5,39,0.00,SCT,,0.00,WeatherDisplay:10.37,2013-06-28 21:55:00,
2013-06-28 16:00:00,81.9,54.5,30.08,WNW,292,5.8,8.3,39,0.00,SCT,,0.00,WeatherDisplay:10.37,2013-06-28 22:00:00,
2013-06-28 16:05:00,81.9,53.8,30.08,WNW,292,6.7,8.8,38,0.00,CLR,,0.00,WeatherDisplay:10.37,2013-06-28 22:05:00,
2013-06-28 16:10:00,82.0,54.6,30.08,North,360,3.9,8.1,39,0.00,CLR,,0.00,WeatherDisplay:10.37,2013-06-28 22:10:00,
2013-06-28 16:15:00,82.2,54.8,30.08,West,270,5.5,7.3,39,0.00,CLR,,0.00,WeatherDisplay:10.37,2013-06-28 22:15:00,
2013-06-28 16:20:00,81.9,54.5,30.08,NW,315,7.1,11.5,39,0.00,CLR,,0.00,WeatherDisplay:10.37,2013-06-28 22:20:00,
2013-06-28 16:25:00,81.9,55.2,30.08,NNW,338,8.6,11.5,40,0.00,CLR,,0.00,WeatherDisplay:10.37,2013-06-28 22:25:00,
2013-06-28 16:30:00,82.6,54.4,30.07,ENE,68,5.5,5.8,38,0.00,CLR,,0.00,WeatherDisplay:10.37,2013-06-28 22:30:00,
2013-06-28 16:35:00,82.6,54.4,30.07,West,270,4.1,5.8,38,0.00,CLR,,0.00,WeatherDisplay:10.37,2013-06-28 22:35:00,
2013-06-28 16:40:00,81.9,53.8,30.07,ENE,68,6.9,7.3,38,0.00,CLR,,0.00,WeatherDisplay:10.37,2013-06-28 22:40:00,
2013-06-28 16:45:00,80.8,53.5,30.07,WNW,292,5.4,9.2,39,0.00,CLR,,0.00,WeatherDisplay:10.37,2013-06-28 22:45:00,
2013-06-28 16:50:00,81.9,54.5,30.07,NNW,338,8.7,10.4,39,0.00,CLR,,0.00,WeatherDisplay:10.37,2013-06-28 22:50:00,
2013-06-28 16:55:00,82.2,54.1,30.07,SSW,202,6.6,11.5,38,0.00,CLR,,0.00,WeatherDisplay:10.37,2013-06-28 22:55:00,
2013-06-28 17:00:00,81.7,53.6,30.07,WNW,292,6.2,8.1,38,0.00,CLR,,0.00,WeatherDisplay:10.37,2013-06-28 23:00:00,
2013-06-28 17:05:00,81.7,53.6,30.07,NW,315,5.0,10.4,38,0.00,SCT,,0.00,WeatherDisplay:10.37,2013-06-28 23:05:00,
2013-06-28 17:10:00,81.7,53.6,30.07,WSW,248,5.8,6.9,38,0.00,SCT,,0.00,WeatherDisplay:10.37,2013-06-28 23:10:00,
2013-06-28 17:15:00,81.9,53.1,30.07,NW,315,4.9,5.8,37,0.00,SCT,,0.00,WeatherDisplay:10.37,2013-06-28 23:15:00,
2013-06-28 17:20:00,82.2,53.3,30.07,NE,45,5.7,8.3,37,0.00,SCT,,0.00,WeatherDisplay:10.37,2013-06-28 23:20:00,
2013-06-28 17:25:00,82.2,53.3,30.07,NNE,22,9.0,11.5,37,0.00,SCT,,0.00,WeatherDisplay:10.37,2013-06-28 23:25:00,
2013-06-28 17:30:00,81.3,53.3,30.07,NW,315,4.1,9.4,38,0.00,SCT,,0.00,WeatherDisplay:10.37,2013-06-28 23:30:00,
2013-06-28 17:35:00,81.7,54.3,30.07,NW,315,2.8,4.6,39,0.00,SCT,,0.00,WeatherDisplay:10.37,2013-06-28 23:35:00,
2013-06-28 17:40:00,81.1,53.1,30.07,NNE,22,8.0,9.2,38,0.00,SCT,,0.00,WeatherDisplay:10.37,2013-06-28 23:40:00,
2013-06-28 17:45:00,80.4,53.2,30.07,North,360,5.7,6.9,39,0.00,SCT,,0.00,WeatherDisplay:10.37,2013-06-28 23:45:00,
2013-06-28 17:50:00,81.0,52.3,30.07,South,180,8.3,16.1,37,0.00,SCT,,0.00,WeatherDisplay:10.37,2013-06-28 23:50:00,
2013-06-28 17:55:00,81.0,53.7,30.07,NNW,338,3.6,5.8,39,0.00,SCT,,0.00,WeatherDisplay:10.37,2013-06-28 23:55:00,
2013-06-28 18:00:00,81.0,55.1,30.07,WNW,292,3.8,4.6,41,0.00,SCT,,0.00,WeatherDisplay:10.37,2013-06-29 00:00:00,
2013-06-28 18:05:00,81.0,55.7,30.07,West,270,4.1,7.3,42,0.00,FEW,,0.00,WeatherDisplay:10.37,2013-06-29 00:05:00,
2013-06-28 18:10:00,80.4,55.2,30.07,NW,315,6.4,8.1,42,0.00,FEW,,0.00,WeatherDisplay:10.37,2013-06-29 00:10:00,
2013-06-28 18:15:00,80.1,54.3,30.07,North,360,6.7,10.9,41,0.00,FEW,,0.00,WeatherDisplay:10.37,2013-06-29 00:15:00,
2013-06-28 18:20:00,79.9,54.1,30.07,SW,225,5.1,8.1,41,0.00,FEW,,0.00,WeatherDisplay:10.37,2013-06-29 00:20:00,
2013-06-28 18:25:00,79.7,53.9,30.07,South,180,4.8,6.8,41,0.00,FEW,,0.00,WeatherDisplay:10.37,2013-06-29 00:25:00,
2013-06-28 18:30:00,79.5,54.4,30.07,NE,45,4.2,5.8,42,0.00,FEW,,0.00,WeatherDisplay:10.37,2013-06-29 00:30:00,
2013-06-28 18:35:00,79.5,54.4,30.07,NW,315,5.3,5.8,42,0.00,FEW,,0.00,WeatherDisplay:10.37,2013-06-29 00:35:00,
2013-06-28 18:40:00,79.5,53.7,30.07,NNW,338,5.8,12.7,41,0.00,FEW,,0.00,WeatherDisplay:10.37,2013-06-29 00:40:00,
2013-06-28 18:45:00,79.2,52.8,30.07,NW,315,7.4,8.1,40,0.00,FEW,,0.00,WeatherDisplay:10.37,2013-06-29 00:45:00,
2013-06-28 18:50:00,79.0,51.9,30.07,WNW,292,5.9,6.9,39,0.00,FEW,,0.00,WeatherDisplay:10.37,2013-06-29 00:50:00,
2013-06-28 18:55:00,79.2,52.1,30.07,NNW,338,6.2,6.9,39,0.00,FEW,,0.00,WeatherDisplay:10.37,2013-06-29 00:55:00,
2013-06-28 19:00:00,79.0,51.2,30.07,West,270,4.0,6.9,38,0.00,FEW,,0.00,WeatherDisplay:10.37,2013-06-29 01:00:00,
2013-06-28 19:05:00,79.0,51.9,30.07,SSW,202,4.7,5.8,39,0.00,CLR,,0.00,WeatherDisplay:10.37,2013-06-29 01:05:00,
2013-06-28 19:10:00,78.8,52.4,30.07,NNW,338,5.1,6.9,40,0.00,CLR,,0.00,WeatherDisplay:10.37,2013-06-29 01:10:00,
2013-06-28 19:15:00,78.8,53.1,30.08,WNW,292,4.9,5.8,41,0.00,CLR,,0.00,WeatherDisplay:10.37,2013-06-29 01:15:00,
2013-06-28 19:20:00,78.3,52.7,30.08,North,360,6.1,9.9,41,0.00,CLR,,0.00,WeatherDisplay:10.37,2013-06-29 01:20:00,
2013-06-28 19:25:00,78.3,53.3,30.08,NE,45,4.9,4.9,42,0.00,CLR,,0.00,WeatherDisplay:10.37,2013-06-29 01:25:00,
2013-06-28 19:30:00,78.1,52.5,30.08,ESE,112,5.3,5.8,41,0.00,CLR,,0.00,WeatherDisplay:10.37,2013-06-29 01:30:00,
2013-06-28 19:35:00,77.7,52.8,30.08,NE,45,5.4,9.2,42,0.00,CLR,,0.00,WeatherDisplay:10.37,2013-06-29 01:35:00,
2013-06-28 19:40:00,77.4,52.5,30.08,NNE,22,6.2,8.1,42,0.00,CLR,,0.00,WeatherDisplay:10.37,2013-06-29 01:40:00,
2013-06-28 19:45:00,77.2,53.0,30.08,WNW,292,4.7,5.8,43,0.00,CLR,,0.00,WeatherDisplay:10.37,2013-06-29 01:45:00,
2013-06-28 19:51:00,77.0,53.4,30.08,NNW,338,2.4,3.5,44,0.00,CLR,,0.00,WeatherDisplay:10.37,2013-06-29 01:51:00,
2013-06-28 19:56:00,76.6,53.7,30.08,NE,45,3.2,3.5,45,0.00,CLR,,0.00,WeatherDisplay:10.37,2013-06-29 01:56:00,
2013-06-28 20:01:00,76.6,54.3,30.08,NW,315,4.4,5.8,46,0.00,CLR,,0.00,WeatherDisplay:10.37,2013-06-29 02:01:00,
2013-06-28 20:06:00,76.1,54.4,30.08,NNW,338,2.9,4.6,47,0.00,CLR,,0.00,WeatherDisplay:10.37,2013-06-29 02:06:00,
2013-06-28 20:11:00,75.7,54.6,30.08,NNE,22,3.5,5.8,48,0.00,CLR,,0.00,WeatherDisplay:10.37,2013-06-29 02:11:00,
2013-06-28 20:16:00,75.6,54.5,30.09,NE,45,4.5,6.3,48,0.00,CLR,,0.00,WeatherDisplay:10.37,2013-06-29 02:16:00,
2013-06-28 20:21:00,75.4,54.9,30.09,North,360,4.1,4.6,49,0.00,CLR,,0.00,WeatherDisplay:10.37,2013-06-29 02:21:00,
2013-06-28 20:26:00,74.8,54.9,30.09,ENE,68,5.2,5.8,50,0.00,CLR,,0.00,WeatherDisplay:10.37,2013-06-29 02:26:00,
2013-06-28 20:31:00,74.5,54.6,30.09,NNE,22,2.7,4.6,50,0.00,CLR,,0.00,WeatherDisplay:10.37,2013-06-29 02:31:00,
2013-06-28 20:36:00,73.8,54.5,30.09,NE,45,2.9,4.6,51,0.00,CLR,,0.00,WeatherDisplay:10.37,2013-06-29 02:36:00,
2013-06-28 20:41:00,73.4,54.7,30.09,North,360,2.2,5.8,52,0.00,CLR,,0.00,WeatherDisplay:10.37,2013-06-29 02:41:00,
2013-06-28 20:46:00,73.0,54.9,30.09,NE,45,3.0,5.8,53,0.00,CLR,,0.00,WeatherDisplay:10.37,2013-06-29 02:46:00,
2013-06-28 20:51:00,72.7,55.1,30.09,NNW,338,2.6,2.6,54,0.00,CLR,,0.00,WeatherDisplay:10.37,2013-06-29 02:51:00,
2013-06-28 20:56:00,72.1,55.0,30.09,NNW,338,2.2,3.5,55,0.00,CLR,,0.00,WeatherDisplay:10.37,2013-06-29 02:56:00,
2013-06-28 21:01:00,71.8,54.8,30.09,North,360,2.8,3.7,55,0.00,CLR,,0.00,WeatherDisplay:10.37,2013-06-29 03:01:00,
2013-06-28 21:06:00,71.2,54.7,30.09,NE,45,2.2,4.6,56,0.00,CLR,,0.00,WeatherDisplay:10.37,2013-06-29 03:06:00,
2013-06-28 21:11:00,70.9,54.9,30.09,NW,315,2.3,2.3,57,0.00,CLR,,0.00,WeatherDisplay:10.37,2013-06-29 03:11:00,
2013-06-28 21:16:00,70.7,54.7,30.09,ENE,68,2.3,4.6,57,0.00,CLR,,0.00,WeatherDisplay:10.37,2013-06-29 03:16:00,
2013-06-28 21:21:00,70.3,54.3,30.09,NNW,338,2.0,3.5,57,0.00,CLR,,0.00,WeatherDisplay:10.37,2013-06-29 03:21:00,
2013-06-28 21:26:00,70.0,54.1,30.10,NNW,338,2.2,3.2,57,0.00,CLR,,0.00,WeatherDisplay:10.37,2013-06-29 03:26:00,
2013-06-28 21:31:00,69.8,54.4,30.10,NW,315,2.4,4.6,58,0.00,CLR,,0.00,WeatherDisplay:10.37,2013-06-29 03:31:00,
2013-06-28 21:36:00,69.4,54.0,30.10,North,360,3.4,4.6,58,0.00,CLR,,0.00,WeatherDisplay:10.37,2013-06-29 03:36:00,
2013-06-28 21:41:00,69.3,53.9,30.10,WNW,292,1.6,2.3,58,0.00,CLR,,0.00,WeatherDisplay:10.37,2013-06-29 03:41:00,
2013-06-28 21:46:00,69.1,53.7,30.10,NNW,338,1.0,1.1,58,0.00,CLR,,0.00,WeatherDisplay:10.37,2013-06-29 03:46:00,
2013-06-28 21:51:00,68.7,53.8,30.10,NE,45,1.6,2.7,59,0.00,CLR,,0.00,WeatherDisplay:10.37,2013-06-29 03:51:00,
2013-06-28 21:56:00,68.5,53.6,30.10,NNW,338,0.6,2.2,59,0.00,CLR,,0.00,WeatherDisplay:10.37,2013-06-29 03:56:00,
2013-06-28 22:01:00,68.4,53.5,30.10,WNW,292,0.4,0.0,59,0.00,CLR,,0.00,WeatherDisplay:10.37,2013-06-29 04:01:00,
2013-06-28 22:06:00,68.2,53.3,30.10,NW,315,2.0,2.3,59,0.00,CLR,,0.00,WeatherDisplay:10.37,2013-06-29 04:06:00,
2013-06-28 22:11:00,68.0,53.1,30.10,NE,45,1.8,2.3,59,0.00,CLR,,0.00,WeatherDisplay:10.37,2013-06-29 04:11:00,
2013-06-28 22:16:00,67.8,52.9,30.09,WNW,292,2.4,2.4,59,0.00,CLR,,0.00,WeatherDisplay:10.37,2013-06-29 04:16:00,
2013-06-28 22:21:00,67.6,52.8,30.09,North,360,1.1,1.1,59,0.00,CLR,,0.00,WeatherDisplay:10.37,2013-06-29 04:21:00,
2013-06-28 22:26:00,67.5,52.7,30.09,NW,315,2.3,2.3,59,0.00,CLR,,0.00,WeatherDisplay:10.37,2013-06-29 04:26:00,
2013-06-28 22:31:00,67.3,52.5,30.09,West,270,1.4,1.4,59,0.00,CLR,,0.00,WeatherDisplay:10.37,2013-06-29 04:31:00,
2013-06-28 22:36:00,67.1,51.8,30.09,NNW,338,2.4,2.7,58,0.00,CLR,,0.00,WeatherDisplay:10.37,2013-06-29 04:36:00,
2013-06-28 22:41:00,66.7,51.5,30.09,SSW,202,0.7,1.1,58,0.00,CLR,,0.00,WeatherDisplay:10.37,2013-06-29 04:41:00,
2013-06-28 22:46:00,66.4,51.2,30.09,NE,45,1.3,1.3,58,0.00,CLR,,0.00,WeatherDisplay:10.37,2013-06-29 04:46:00,
2013-06-28 22:51:00,66.4,51.2,30.10,West,270,2.2,3.5,58,0.00,CLR,,0.00,WeatherDisplay:10.37,2013-06-29 04:51:00,
2013-06-28 22:56:00,66.0,51.3,30.10,West,270,1.0,1.1,59,0.00,CLR,,0.00,WeatherDisplay:10.37,2013-06-29 04:56:00,
2013-06-28 23:01:00,65.7,51.0,30.10,SE,135,1.1,1.1,59,0.00,CLR,,0.00,WeatherDisplay:10.37,2013-06-29 05:01:00,
2013-06-28 23:06:00,65.3,51.1,30.10,WNW,292,1.6,2.3,60,0.00,CLR,,0.00,WeatherDisplay:10.37,2013-06-29 05:06:00,
2013-06-28 23:11:00,65.1,51.3,30.10,NNW,338,0.0,0.0,61,0.00,CLR,,0.00,WeatherDisplay:10.37,2013-06-29 05:11:00,
2013-06-28 23:16:00,64.6,50.8,30.09,NW,315,0.1,1.1,61,0.00,CLR,,0.00,WeatherDisplay:10.37,2013-06-29 05:16:00,
2013-06-28 23:21:00,64.2,51.3,30.09,WSW,248,0.0,0.0,63,0.00,CLR,,0.00,WeatherDisplay:10.37,2013-06-29 05:21:00,
2013-06-28 23:26:00,63.9,51.1,30.09,NW,315,1.1,2.2,63,0.00,CLR,,0.00,WeatherDisplay:10.37,2013-06-29 05:26:00,
2013-06-28 23:31:00,63.7,51.3,30.09,WNW,292,0.5,1.1,64,0.00,CLR,,0.00,WeatherDisplay:10.37,2013-06-29 05:31:00,
2013-06-28 23:36:00,63.3,51.3,30.09,WNW,292,0.0,0.0,65,0.00,CLR,,0.00,WeatherDisplay:10.37,2013-06-29 05:36:00,
2013-06-28 23:41:00,62.8,52.1,30.09,SW,225,1.5,2.3,68,0.00,CLR,,0.00,WeatherDisplay:10.37,2013-06-29 05:41:00,
2013-06-28 23:46:00,61.9,51.6,30.09,SW,225,2.4,2.7,69,0.00,CLR,,0.00,WeatherDisplay:10.37,2013-06-29 05:46:00,
2013-06-28 23:51:00,61.3,51.8,30.09,SSW,202,1.2,1.7,71,0.00,CLR,,0.00,WeatherDisplay:10.37,2013-06-29 05:51:00,
2013-06-28 23:56:00,60.8,51.7,30.09,WSW,248,0.0,1.1,72,0.00,CLR,,0.00,WeatherDisplay:10.37,2013-06-29 05:56:00,